sensor_id;sensor_type;location;lat;lon;timestamp;P1;durP1;ratioP1;P2;durP2;ratioP2
22883;SDS011;13386;24.786;110.488;2023-06-01T00:02:16;26.90;;;11.20;;
22883;SDS011;13386;24.786;110.488;2023-06-01T00:04:48;24.85;;;11.38;;
22883;SDS011;13386;24.786;110.488;2023-06-01T00:07:19;25.15;;;10.85;;
22883;SDS011;13386;24.786;110.488;2023-06-01T00:09:50;28.17;;;10.90;;
22883;SDS011;13386;24.786;110.488;2023-06-01T00:12:20;26.80;;;11.63;;
22883;SDS011;13386;24.786;110.488;2023-06-01T00:14:51;26.10;;;12.05;;
22883;SDS011;13386;24.786;110.488;2023-06-01T00:17:21;30.15;;;12.15;;
22883;SDS011;13386;24.786;110.488;2023-06-01T00:19:53;31.42;;;13.30;;
22883;SDS011;13386;24.786;110.488;2023-06-01T00:22:23;27.80;;;12.95;;
22883;SDS011;13386;24.786;110.488;2023-06-01T00:24:55;35.00;;;13.70;;
22883;SDS011;13386;24.786;110.488;2023-06-01T00:27:25;32.45;;;13.75;;
22883;SDS011;13386;24.786;110.488;2023-06-01T00:29:57;38.90;;;18.30;;
22883;SDS011;13386;24.786;110.488;2023-06-01T00:32:28;50.92;;;23.77;;
22883;SDS011;13386;24.786;110.488;2023-06-01T00:35:00;40.58;;;18.65;;
22883;SDS011;13386;24.786;110.488;2023-06-01T00:37:30;32.47;;;15.98;;
22883;SDS011;13386;24.786;110.488;2023-06-01T00:40:00;33.05;;;16.23;;
22883;SDS011;13386;24.786;110.488;2023-06-01T00:42:31;33.03;;;15.27;;
22883;SDS011;13386;24.786;110.488;2023-06-01T00:45:01;39.53;;;16.88;;
22883;SDS011;13386;24.786;110.488;2023-06-01T00:47:31;32.28;;;15.18;;
22883;SDS011;13386;24.786;110.488;2023-06-01T00:50:06;32.47;;;15.45;;
22883;SDS011;13386;24.786;110.488;2023-06-01T00:52:36;35.35;;;16.17;;
22883;SDS011;13386;24.786;110.488;2023-06-01T00:55:07;33.03;;;16.20;;
22883;SDS011;13386;24.786;110.488;2023-06-01T00:57:38;34.33;;;16.10;;
22883;SDS011;13386;24.786;110.488;2023-06-01T01:00:10;31.85;;;14.73;;
22883;SDS011;13386;24.786;110.488;2023-06-01T01:02:40;37.20;;;15.68;;
22883;SDS011;13386;24.786;110.488;2023-06-01T01:05:13;33.40;;;16.42;;
22883;SDS011;13386;24.786;110.488;2023-06-01T01:07:46;33.28;;;15.88;;
22883;SDS011;13386;24.786;110.488;2023-06-01T01:10:24;31.77;;;15.43;;
22883;SDS011;13386;24.786;110.488;2023-06-01T01:12:57;30.30;;;14.90;;
22883;SDS011;13386;24.786;110.488;2023-06-01T01:15:29;35.28;;;16.00;;
22883;SDS011;13386;24.786;110.488;2023-06-01T01:18:03;33.70;;;15.10;;
22883;SDS011;13386;24.786;110.488;2023-06-01T01:20:37;33.45;;;15.45;;
22883;SDS011;13386;24.786;110.488;2023-06-01T01:28:46;28.65;;;14.07;;
22883;SDS011;13386;24.786;110.488;2023-06-01T01:31:18;31.75;;;15.48;;
22883;SDS011;13386;24.786;110.488;2023-06-01T01:33:52;42.05;;;18.25;;
22883;SDS011;13386;24.786;110.488;2023-06-01T01:36:24;34.13;;;15.68;;
22883;SDS011;13386;24.786;110.488;2023-06-01T01:38:54;32.38;;;15.85;;
22883;SDS011;13386;24.786;110.488;2023-06-01T01:41:25;32.28;;;14.75;;
22883;SDS011;13386;24.786;110.488;2023-06-01T01:43:57;32.65;;;14.98;;
22883;SDS011;13386;24.786;110.488;2023-06-01T01:46:28;34.20;;;15.15;;
22883;SDS011;13386;24.786;110.488;2023-06-01T01:49:09;37.08;;;14.95;;
22883;SDS011;13386;24.786;110.488;2023-06-01T01:51:44;32.15;;;14.60;;
22883;SDS011;13386;24.786;110.488;2023-06-01T01:54:17;33.58;;;15.45;;
22883;SDS011;13386;24.786;110.488;2023-06-01T01:56:49;34.47;;;15.20;;
22883;SDS011;13386;24.786;110.488;2023-06-01T01:59:24;32.30;;;15.25;;
22883;SDS011;13386;24.786;110.488;2023-06-01T02:01:55;30.38;;;14.45;;
22883;SDS011;13386;24.786;110.488;2023-06-01T02:04:25;32.35;;;15.15;;
22883;SDS011;13386;24.786;110.488;2023-06-01T02:06:56;29.90;;;14.93;;
22883;SDS011;13386;24.786;110.488;2023-06-01T02:09:30;29.48;;;14.13;;
22883;SDS011;13386;24.786;110.488;2023-06-01T02:12:00;28.58;;;13.77;;
22883;SDS011;13386;24.786;110.488;2023-06-01T02:14:34;35.03;;;13.95;;
22883;SDS011;13386;24.786;110.488;2023-06-01T02:17:04;29.65;;;14.57;;
22883;SDS011;13386;24.786;110.488;2023-06-01T02:19:36;33.85;;;14.95;;
22883;SDS011;13386;24.786;110.488;2023-06-01T02:22:06;32.28;;;15.10;;
22883;SDS011;13386;24.786;110.488;2023-06-01T02:24:36;30.20;;;14.20;;
22883;SDS011;13386;24.786;110.488;2023-06-01T02:27:06;31.55;;;14.57;;
22883;SDS011;13386;24.786;110.488;2023-06-01T02:29:39;33.13;;;15.30;;
22883;SDS011;13386;24.786;110.488;2023-06-01T02:32:11;31.08;;;14.95;;
22883;SDS011;13386;24.786;110.488;2023-06-01T02:34:42;33.83;;;15.68;;
22883;SDS011;13386;24.786;110.488;2023-06-01T02:37:12;31.45;;;15.25;;
22883;SDS011;13386;24.786;110.488;2023-06-01T02:39:42;40.72;;;19.17;;
22883;SDS011;13386;24.786;110.488;2023-06-01T02:42:12;32.35;;;15.88;;
22883;SDS011;13386;24.786;110.488;2023-06-01T02:44:44;32.83;;;15.82;;
22883;SDS011;13386;24.786;110.488;2023-06-01T02:47:14;38.35;;;16.33;;
22883;SDS011;13386;24.786;110.488;2023-06-01T02:49:46;34.35;;;16.38;;
22883;SDS011;13386;24.786;110.488;2023-06-01T02:52:17;31.02;;;15.90;;
22883;SDS011;13386;24.786;110.488;2023-06-01T02:54:47;34.05;;;14.77;;
22883;SDS011;13386;24.786;110.488;2023-06-01T02:57:35;37.95;;;16.45;;
22883;SDS011;13386;24.786;110.488;2023-06-01T03:00:09;37.50;;;15.77;;
22883;SDS011;13386;24.786;110.488;2023-06-01T03:02:44;31.70;;;16.08;;
22883;SDS011;13386;24.786;110.488;2023-06-01T03:05:15;37.42;;;15.80;;
22883;SDS011;13386;24.786;110.488;2023-06-01T03:07:50;31.90;;;14.82;;
22883;SDS011;13386;24.786;110.488;2023-06-01T03:10:25;31.38;;;14.82;;
22883;SDS011;13386;24.786;110.488;2023-06-01T03:13:08;31.08;;;15.00;;
22883;SDS011;13386;24.786;110.488;2023-06-01T03:15:40;28.67;;;15.23;;
22883;SDS011;13386;24.786;110.488;2023-06-01T03:18:12;30.50;;;14.93;;
22883;SDS011;13386;24.786;110.488;2023-06-01T03:20:42;34.83;;;16.00;;
22883;SDS011;13386;24.786;110.488;2023-06-01T03:23:14;33.58;;;16.02;;
22883;SDS011;13386;24.786;110.488;2023-06-01T03:25:44;36.08;;;16.55;;
22883;SDS011;13386;24.786;110.488;2023-06-01T03:28:14;37.97;;;16.80;;
22883;SDS011;13386;24.786;110.488;2023-06-01T03:30:46;32.95;;;15.38;;
22883;SDS011;13386;24.786;110.488;2023-06-01T03:33:18;31.52;;;15.48;;
22883;SDS011;13386;24.786;110.488;2023-06-01T03:35:48;30.85;;;13.85;;
22883;SDS011;13386;24.786;110.488;2023-06-01T03:38:18;30.33;;;14.93;;
22883;SDS011;13386;24.786;110.488;2023-06-01T03:40:49;37.90;;;16.50;;
22883;SDS011;13386;24.786;110.488;2023-06-01T03:43:20;29.73;;;14.95;;
22883;SDS011;13386;24.786;110.488;2023-06-01T03:45:53;31.92;;;15.82;;
22883;SDS011;13386;24.786;110.488;2023-06-01T03:48:24;26.88;;;14.07;;
22883;SDS011;13386;24.786;110.488;2023-06-01T03:50:54;33.47;;;15.73;;
22883;SDS011;13386;24.786;110.488;2023-06-01T03:53:25;29.08;;;14.73;;
22883;SDS011;13386;24.786;110.488;2023-06-01T03:55:55;34.30;;;15.43;;
22883;SDS011;13386;24.786;110.488;2023-06-01T03:58:33;35.17;;;15.40;;
22883;SDS011;13386;24.786;110.488;2023-06-01T04:01:07;31.42;;;15.10;;
22883;SDS011;13386;24.786;110.488;2023-06-01T04:03:39;39.20;;;16.73;;
22883;SDS011;13386;24.786;110.488;2023-06-01T04:06:10;37.95;;;16.40;;
22883;SDS011;13386;24.786;110.488;2023-06-01T04:08:47;34.35;;;15.65;;
22883;SDS011;13386;24.786;110.488;2023-06-01T04:11:17;34.67;;;15.38;;
22883;SDS011;13386;24.786;110.488;2023-06-01T04:13:48;31.92;;;15.00;;
22883;SDS011;13386;24.786;110.488;2023-06-01T04:16:20;33.67;;;15.63;;
22883;SDS011;13386;24.786;110.488;2023-06-01T04:18:52;29.30;;;13.53;;
22883;SDS011;13386;24.786;110.488;2023-06-01T04:21:27;34.25;;;17.23;;
22883;SDS011;13386;24.786;110.488;2023-06-01T04:23:57;32.30;;;14.35;;
22883;SDS011;13386;24.786;110.488;2023-06-01T04:26:27;29.90;;;14.13;;
22883;SDS011;13386;24.786;110.488;2023-06-01T04:28:58;33.40;;;14.43;;
22883;SDS011;13386;24.786;110.488;2023-06-01T04:31:31;26.38;;;14.23;;
22883;SDS011;13386;24.786;110.488;2023-06-01T04:34:14;32.60;;;14.85;;
22883;SDS011;13386;24.786;110.488;2023-06-01T04:36:45;29.20;;;14.73;;
22883;SDS011;13386;24.786;110.488;2023-06-01T04:39:18;32.17;;;15.23;;
22883;SDS011;13386;24.786;110.488;2023-06-01T04:41:51;29.92;;;14.75;;
22883;SDS011;13386;24.786;110.488;2023-06-01T04:44:22;28.75;;;15.10;;
22883;SDS011;13386;24.786;110.488;2023-06-01T04:46:55;30.98;;;14.70;;
22883;SDS011;13386;24.786;110.488;2023-06-01T04:49:30;30.88;;;14.98;;
22883;SDS011;13386;24.786;110.488;2023-06-01T04:52:01;31.50;;;15.25;;
22883;SDS011;13386;24.786;110.488;2023-06-01T04:54:32;36.30;;;15.65;;
22883;SDS011;13386;24.786;110.488;2023-06-01T04:57:03;37.13;;;15.77;;
22883;SDS011;13386;24.786;110.488;2023-06-01T04:59:35;34.95;;;14.88;;
22883;SDS011;13386;24.786;110.488;2023-06-01T05:02:11;31.88;;;15.05;;
22883;SDS011;13386;24.786;110.488;2023-06-01T05:04:44;28.52;;;14.70;;
22883;SDS011;13386;24.786;110.488;2023-06-01T05:07:14;28.90;;;14.18;;
22883;SDS011;13386;24.786;110.488;2023-06-01T05:09:44;31.50;;;15.10;;
22883;SDS011;13386;24.786;110.488;2023-06-01T05:12:18;31.88;;;15.02;;
22883;SDS011;13386;24.786;110.488;2023-06-01T05:14:48;32.05;;;15.02;;
22883;SDS011;13386;24.786;110.488;2023-06-01T05:17:22;31.00;;;15.68;;
22883;SDS011;13386;24.786;110.488;2023-06-01T05:19:53;34.03;;;14.90;;
22883;SDS011;13386;24.786;110.488;2023-06-01T05:22:24;30.33;;;14.77;;
22883;SDS011;13386;24.786;110.488;2023-06-01T05:24:58;30.77;;;14.40;;
22883;SDS011;13386;24.786;110.488;2023-06-01T05:27:28;30.95;;;14.88;;
22883;SDS011;13386;24.786;110.488;2023-06-01T05:30:01;28.98;;;13.80;;
22883;SDS011;13386;24.786;110.488;2023-06-01T05:32:33;30.33;;;15.15;;
22883;SDS011;13386;24.786;110.488;2023-06-01T05:35:11;29.60;;;15.05;;
22883;SDS011;13386;24.786;110.488;2023-06-01T05:37:42;28.67;;;14.25;;
22883;SDS011;13386;24.786;110.488;2023-06-01T05:40:12;30.05;;;13.82;;
22883;SDS011;13386;24.786;110.488;2023-06-01T05:42:43;28.63;;;14.07;;
22883;SDS011;13386;24.786;110.488;2023-06-01T05:45:13;31.10;;;13.98;;
22883;SDS011;13386;24.786;110.488;2023-06-01T05:47:46;30.63;;;14.88;;
22883;SDS011;13386;24.786;110.488;2023-06-01T05:50:18;29.10;;;14.30;;
22883;SDS011;13386;24.786;110.488;2023-06-01T05:52:48;29.70;;;13.75;;
22883;SDS011;13386;24.786;110.488;2023-06-01T05:55:18;34.13;;;14.93;;
22883;SDS011;13386;24.786;110.488;2023-06-01T05:57:49;31.25;;;13.80;;
22883;SDS011;13386;24.786;110.488;2023-06-01T06:00:19;31.52;;;14.77;;
22883;SDS011;13386;24.786;110.488;2023-06-01T06:02:54;28.23;;;13.77;;
22883;SDS011;13386;24.786;110.488;2023-06-01T06:05:28;26.73;;;14.55;;
22883;SDS011;13386;24.786;110.488;2023-06-01T06:07:58;30.20;;;15.10;;
22883;SDS011;13386;24.786;110.488;2023-06-01T06:10:28;32.05;;;14.88;;
22883;SDS011;13386;24.786;110.488;2023-06-01T06:12:58;30.42;;;14.73;;
22883;SDS011;13386;24.786;110.488;2023-06-01T06:15:29;26.83;;;13.65;;
22883;SDS011;13386;24.786;110.488;2023-06-01T06:18:01;26.98;;;14.35;;
22883;SDS011;13386;24.786;110.488;2023-06-01T06:20:32;29.42;;;14.40;;
22883;SDS011;13386;24.786;110.488;2023-06-01T06:23:05;25.10;;;13.65;;
22883;SDS011;13386;24.786;110.488;2023-06-01T06:25:37;29.38;;;14.77;;
22883;SDS011;13386;24.786;110.488;2023-06-01T06:28:09;32.60;;;14.70;;
22883;SDS011;13386;24.786;110.488;2023-06-01T06:30:44;27.92;;;13.93;;
22883;SDS011;13386;24.786;110.488;2023-06-01T06:33:18;25.25;;;13.25;;
22883;SDS011;13386;24.786;110.488;2023-06-01T06:35:52;24.65;;;13.18;;
22883;SDS011;13386;24.786;110.488;2023-06-01T06:38:22;24.95;;;13.35;;
22883;SDS011;13386;24.786;110.488;2023-06-01T06:40:52;25.05;;;12.95;;
22883;SDS011;13386;24.786;110.488;2023-06-01T06:43:24;27.00;;;13.95;;
22883;SDS011;13386;24.786;110.488;2023-06-01T06:45:56;29.40;;;14.05;;
22883;SDS011;13386;24.786;110.488;2023-06-01T06:48:28;31.55;;;13.95;;
22883;SDS011;13386;24.786;110.488;2023-06-01T06:50:58;29.38;;;14.50;;
22883;SDS011;13386;24.786;110.488;2023-06-01T06:53:31;27.65;;;13.52;;
22883;SDS011;13386;24.786;110.488;2023-06-01T06:56:10;27.10;;;13.20;;
22883;SDS011;13386;24.786;110.488;2023-06-01T06:58:40;29.42;;;14.02;;
22883;SDS011;13386;24.786;110.488;2023-06-01T07:01:10;26.75;;;12.73;;
22883;SDS011;13386;24.786;110.488;2023-06-01T07:03:45;26.88;;;13.23;;
22883;SDS011;13386;24.786;110.488;2023-06-01T07:06:15;30.52;;;12.98;;
22883;SDS011;13386;24.786;110.488;2023-06-01T07:08:49;28.95;;;13.65;;
22883;SDS011;13386;24.786;110.488;2023-06-01T07:11:20;26.70;;;12.85;;
22883;SDS011;13386;24.786;110.488;2023-06-01T07:13:50;23.52;;;12.02;;
22883;SDS011;13386;24.786;110.488;2023-06-01T07:16:20;28.95;;;12.95;;
22883;SDS011;13386;24.786;110.488;2023-06-01T07:18:52;25.83;;;12.85;;
22883;SDS011;13386;24.786;110.488;2023-06-01T07:21:31;26.55;;;12.95;;
22883;SDS011;13386;24.786;110.488;2023-06-01T07:24:03;29.02;;;13.90;;
22883;SDS011;13386;24.786;110.488;2023-06-01T07:26:33;31.10;;;13.23;;
22883;SDS011;13386;24.786;110.488;2023-06-01T07:29:03;31.67;;;13.82;;
22883;SDS011;13386;24.786;110.488;2023-06-01T07:31:34;24.83;;;12.98;;
22883;SDS011;13386;24.786;110.488;2023-06-01T07:34:09;27.65;;;13.68;;
22883;SDS011;13386;24.786;110.488;2023-06-01T07:36:41;28.60;;;13.82;;
22883;SDS011;13386;24.786;110.488;2023-06-01T07:39:12;27.20;;;13.95;;
22883;SDS011;13386;24.786;110.488;2023-06-01T07:41:44;29.73;;;13.98;;
22883;SDS011;13386;24.786;110.488;2023-06-01T07:44:20;25.23;;;13.30;;
22883;SDS011;13386;24.786;110.488;2023-06-01T07:46:53;27.38;;;13.85;;
22883;SDS011;13386;24.786;110.488;2023-06-01T07:49:26;31.05;;;13.95;;
22883;SDS011;13386;24.786;110.488;2023-06-01T07:51:56;29.80;;;13.45;;
22883;SDS011;13386;24.786;110.488;2023-06-01T07:54:26;29.15;;;13.55;;
22883;SDS011;13386;24.786;110.488;2023-06-01T07:56:56;30.10;;;13.77;;
22883;SDS011;13386;24.786;110.488;2023-06-01T07:59:26;25.63;;;13.48;;
22883;SDS011;13386;24.786;110.488;2023-06-01T08:02:01;25.48;;;12.93;;
22883;SDS011;13386;24.786;110.488;2023-06-01T08:04:35;26.05;;;13.23;;
22883;SDS011;13386;24.786;110.488;2023-06-01T08:07:06;25.23;;;13.05;;
22883;SDS011;13386;24.786;110.488;2023-06-01T08:09:36;26.58;;;13.23;;
22883;SDS011;13386;24.786;110.488;2023-06-01T08:12:07;26.05;;;13.73;;
22883;SDS011;13386;24.786;110.488;2023-06-01T08:14:38;28.35;;;13.65;;
22883;SDS011;13386;24.786;110.488;2023-06-01T08:17:08;25.45;;;12.95;;
22883;SDS011;13386;24.786;110.488;2023-06-01T08:19:42;27.60;;;13.13;;
22883;SDS011;13386;24.786;110.488;2023-06-01T08:22:20;30.00;;;14.02;;
22883;SDS011;13386;24.786;110.488;2023-06-01T08:24:51;28.27;;;13.95;;
22883;SDS011;13386;24.786;110.488;2023-06-01T08:27:22;25.25;;;13.35;;
22883;SDS011;13386;24.786;110.488;2023-06-01T08:29:54;25.42;;;13.52;;
22883;SDS011;13386;24.786;110.488;2023-06-01T08:32:25;26.23;;;12.73;;
22883;SDS011;13386;24.786;110.488;2023-06-01T08:35:00;24.17;;;12.60;;
22883;SDS011;13386;24.786;110.488;2023-06-01T08:37:30;28.20;;;12.73;;
22883;SDS011;13386;24.786;110.488;2023-06-01T08:40:01;26.92;;;13.43;;
22883;SDS011;13386;24.786;110.488;2023-06-01T08:42:39;27.52;;;13.18;;
22883;SDS011;13386;24.786;110.488;2023-06-01T08:45:12;25.73;;;13.52;;
22883;SDS011;13386;24.786;110.488;2023-06-01T08:47:45;24.80;;;12.80;;
22883;SDS011;13386;24.786;110.488;2023-06-01T08:50:17;27.35;;;13.48;;
22883;SDS011;13386;24.786;110.488;2023-06-01T08:52:48;25.98;;;12.95;;
22883;SDS011;13386;24.786;110.488;2023-06-01T08:55:22;29.77;;;14.30;;
22883;SDS011;13386;24.786;110.488;2023-06-01T08:57:52;24.30;;;12.70;;
22883;SDS011;13386;24.786;110.488;2023-06-01T09:00:22;27.65;;;12.88;;
22883;SDS011;13386;24.786;110.488;2023-06-01T09:02:53;23.95;;;13.18;;
22883;SDS011;13386;24.786;110.488;2023-06-01T09:05:27;25.88;;;13.82;;
22883;SDS011;13386;24.786;110.488;2023-06-01T09:07:57;28.17;;;14.38;;
22883;SDS011;13386;24.786;110.488;2023-06-01T09:10:27;31.85;;;14.30;;
22883;SDS011;13386;24.786;110.488;2023-06-01T09:12:57;26.35;;;13.68;;
22883;SDS011;13386;24.786;110.488;2023-06-01T09:15:27;26.02;;;13.27;;
22883;SDS011;13386;24.786;110.488;2023-06-01T09:18:04;26.00;;;13.23;;
22883;SDS011;13386;24.786;110.488;2023-06-01T09:20:38;24.33;;;12.88;;
22883;SDS011;13386;24.786;110.488;2023-06-01T09:23:09;27.38;;;13.93;;
22883;SDS011;13386;24.786;110.488;2023-06-01T09:25:39;27.48;;;13.80;;
22883;SDS011;13386;24.786;110.488;2023-06-01T09:28:09;28.40;;;13.70;;
22883;SDS011;13386;24.786;110.488;2023-06-01T09:30:42;27.08;;;13.60;;
22883;SDS011;13386;24.786;110.488;2023-06-01T09:33:13;25.70;;;13.63;;
22883;SDS011;13386;24.786;110.488;2023-06-01T09:35:46;27.25;;;13.27;;
22883;SDS011;13386;24.786;110.488;2023-06-01T09:38:20;26.90;;;13.40;;
22883;SDS011;13386;24.786;110.488;2023-06-01T09:40:56;29.15;;;13.35;;
22883;SDS011;13386;24.786;110.488;2023-06-01T09:43:26;24.23;;;13.07;;
22883;SDS011;13386;24.786;110.488;2023-06-01T09:46:05;26.02;;;13.10;;
22883;SDS011;13386;24.786;110.488;2023-06-01T09:48:35;30.92;;;13.45;;
22883;SDS011;13386;24.786;110.488;2023-06-01T09:51:07;28.90;;;13.35;;
22883;SDS011;13386;24.786;110.488;2023-06-01T09:53:52;26.98;;;13.18;;
22883;SDS011;13386;24.786;110.488;2023-06-01T09:56:22;26.73;;;13.82;;
22883;SDS011;13386;24.786;110.488;2023-06-01T09:58:56;29.20;;;13.82;;
22883;SDS011;13386;24.786;110.488;2023-06-01T10:01:27;29.95;;;14.25;;
22883;SDS011;13386;24.786;110.488;2023-06-01T10:03:58;26.33;;;13.27;;
22883;SDS011;13386;24.786;110.488;2023-06-01T10:06:32;28.70;;;14.02;;
22883;SDS011;13386;24.786;110.488;2023-06-01T10:09:04;25.48;;;13.40;;
22883;SDS011;13386;24.786;110.488;2023-06-01T10:11:36;26.60;;;13.40;;
22883;SDS011;13386;24.786;110.488;2023-06-01T10:14:06;27.83;;;14.25;;
22883;SDS011;13386;24.786;110.488;2023-06-01T10:16:37;24.80;;;14.15;;
22883;SDS011;13386;24.786;110.488;2023-06-01T10:19:08;24.33;;;13.10;;
22883;SDS011;13386;24.786;110.488;2023-06-01T10:21:40;27.85;;;13.52;;
22883;SDS011;13386;24.786;110.488;2023-06-01T10:24:13;27.33;;;13.48;;
22883;SDS011;13386;24.786;110.488;2023-06-01T10:26:51;25.27;;;13.60;;
22883;SDS011;13386;24.786;110.488;2023-06-01T10:29:24;31.00;;;13.93;;
22883;SDS011;13386;24.786;110.488;2023-06-01T10:31:54;24.13;;;13.50;;
22883;SDS011;13386;24.786;110.488;2023-06-01T10:34:36;26.35;;;13.35;;
22883;SDS011;13386;24.786;110.488;2023-06-01T10:37:15;31.73;;;13.98;;
22883;SDS011;13386;24.786;110.488;2023-06-01T10:39:46;29.70;;;14.10;;
22883;SDS011;13386;24.786;110.488;2023-06-01T10:42:37;26.48;;;13.50;;
22883;SDS011;13386;24.786;110.488;2023-06-01T10:45:09;26.23;;;13.65;;
22883;SDS011;13386;24.786;110.488;2023-06-01T10:48:00;33.40;;;13.93;;
22883;SDS011;13386;24.786;110.488;2023-06-01T10:50:30;29.35;;;14.50;;
22883;SDS011;13386;24.786;110.488;2023-06-01T10:55:47;28.38;;;14.40;;
22883;SDS011;13386;24.786;110.488;2023-06-01T10:58:20;28.42;;;13.98;;
22883;SDS011;13386;24.786;110.488;2023-06-01T11:00:54;27.33;;;14.07;;
22883;SDS011;13386;24.786;110.488;2023-06-01T11:03:43;31.05;;;14.68;;
22883;SDS011;13386;24.786;110.488;2023-06-01T11:06:23;26.58;;;14.10;;
22883;SDS011;13386;24.786;110.488;2023-06-01T11:08:55;30.38;;;14.60;;
22883;SDS011;13386;24.786;110.488;2023-06-01T11:14:19;29.23;;;14.20;;
22883;SDS011;13386;24.786;110.488;2023-06-01T11:16:50;47.72;;;17.30;;
22883;SDS011;13386;24.786;110.488;2023-06-01T11:19:21;75.45;;;20.92;;
22883;SDS011;13386;24.786;110.488;2023-06-01T11:21:54;29.85;;;14.98;;
22883;SDS011;13386;24.786;110.488;2023-06-01T11:24:31;30.17;;;14.73;;
22883;SDS011;13386;24.786;110.488;2023-06-01T11:27:04;28.63;;;14.15;;
22883;SDS011;13386;24.786;110.488;2023-06-01T11:29:48;30.70;;;15.23;;
22883;SDS011;13386;24.786;110.488;2023-06-01T11:32:20;31.95;;;15.73;;
22883;SDS011;13386;24.786;110.488;2023-06-01T11:34:52;33.78;;;16.45;;
22883;SDS011;13386;24.786;110.488;2023-06-01T11:37:22;41.55;;;17.08;;
22883;SDS011;13386;24.786;110.488;2023-06-01T11:39:55;67.65;;;25.17;;
22883;SDS011;13386;24.786;110.488;2023-06-01T11:42:37;91.90;;;31.98;;
22883;SDS011;13386;24.786;110.488;2023-06-01T11:45:13;102.55;;;34.85;;
22883;SDS011;13386;24.786;110.488;2023-06-01T11:47:45;103.28;;;33.30;;
22883;SDS011;13386;24.786;110.488;2023-06-01T11:50:21;81.85;;;30.48;;
22883;SDS011;13386;24.786;110.488;2023-06-01T11:52:54;79.70;;;28.23;;
22883;SDS011;13386;24.786;110.488;2023-06-01T11:55:25;67.68;;;27.23;;
22883;SDS011;13386;24.786;110.488;2023-06-01T11:57:55;71.43;;;25.55;;
22883;SDS011;13386;24.786;110.488;2023-06-01T12:00:29;60.55;;;25.27;;
22883;SDS011;13386;24.786;110.488;2023-06-01T12:03:06;73.35;;;26.45;;
22883;SDS011;13386;24.786;110.488;2023-06-01T12:05:40;62.35;;;23.90;;
22883;SDS011;13386;24.786;110.488;2023-06-01T12:08:15;60.92;;;24.80;;
22883;SDS011;13386;24.786;110.488;2023-06-01T12:10:46;62.75;;;23.70;;
22883;SDS011;13386;24.786;110.488;2023-06-01T12:13:17;56.42;;;21.77;;
22883;SDS011;13386;24.786;110.488;2023-06-01T12:15:51;45.35;;;20.40;;
22883;SDS011;13386;24.786;110.488;2023-06-01T12:18:31;50.92;;;20.80;;
22883;SDS011;13386;24.786;110.488;2023-06-01T12:21:11;45.17;;;18.55;;
22883;SDS011;13386;24.786;110.488;2023-06-01T12:23:43;43.97;;;18.88;;
22883;SDS011;13386;24.786;110.488;2023-06-01T12:26:19;38.70;;;18.73;;
22883;SDS011;13386;24.786;110.488;2023-06-01T12:28:50;39.75;;;18.13;;
22883;SDS011;13386;24.786;110.488;2023-06-01T12:31:23;37.33;;;17.67;;
22883;SDS011;13386;24.786;110.488;2023-06-01T12:33:53;38.63;;;17.75;;
22883;SDS011;13386;24.786;110.488;2023-06-01T12:36:29;33.58;;;16.75;;
22883;SDS011;13386;24.786;110.488;2023-06-01T12:39:00;37.70;;;16.45;;
22883;SDS011;13386;24.786;110.488;2023-06-01T12:41:32;35.65;;;16.88;;
22883;SDS011;13386;24.786;110.488;2023-06-01T12:44:03;38.28;;;17.08;;
22883;SDS011;13386;24.786;110.488;2023-06-01T12:46:36;39.90;;;16.40;;
22883;SDS011;13386;24.786;110.488;2023-06-01T12:49:12;34.42;;;16.85;;
22883;SDS011;13386;24.786;110.488;2023-06-01T12:51:47;33.08;;;16.38;;
22883;SDS011;13386;24.786;110.488;2023-06-01T12:54:17;36.28;;;17.08;;
22883;SDS011;13386;24.786;110.488;2023-06-01T12:56:52;39.53;;;17.52;;
22883;SDS011;13386;24.786;110.488;2023-06-01T12:59:23;34.83;;;16.33;;
22883;SDS011;13386;24.786;110.488;2023-06-01T13:01:55;31.73;;;16.38;;
22883;SDS011;13386;24.786;110.488;2023-06-01T13:04:25;33.03;;;16.52;;
22883;SDS011;13386;24.786;110.488;2023-06-01T13:06:57;30.20;;;15.38;;
22883;SDS011;13386;24.786;110.488;2023-06-01T13:09:28;31.70;;;15.98;;
22883;SDS011;13386;24.786;110.488;2023-06-01T13:12:00;31.13;;;15.50;;
22883;SDS011;13386;24.786;110.488;2023-06-01T13:14:32;30.90;;;16.00;;
22883;SDS011;13386;24.786;110.488;2023-06-01T13:17:06;33.42;;;16.15;;
22883;SDS011;13386;24.786;110.488;2023-06-01T13:19:36;33.10;;;15.07;;
22883;SDS011;13386;24.786;110.488;2023-06-01T13:22:09;32.88;;;15.57;;
22883;SDS011;13386;24.786;110.488;2023-06-01T13:24:41;30.45;;;15.00;;
22883;SDS011;13386;24.786;110.488;2023-06-01T13:27:15;29.20;;;15.18;;
22883;SDS011;13386;24.786;110.488;2023-06-01T13:29:47;30.35;;;15.48;;
22883;SDS011;13386;24.786;110.488;2023-06-01T13:32:19;34.28;;;16.73;;
22883;SDS011;13386;24.786;110.488;2023-06-01T13:34:53;31.70;;;15.85;;
22883;SDS011;13386;24.786;110.488;2023-06-01T13:37:25;31.02;;;14.98;;
22883;SDS011;13386;24.786;110.488;2023-06-01T13:39:55;30.58;;;16.20;;
22883;SDS011;13386;24.786;110.488;2023-06-01T13:42:28;33.25;;;15.50;;
22883;SDS011;13386;24.786;110.488;2023-06-01T13:44:59;37.38;;;16.77;;
22883;SDS011;13386;24.786;110.488;2023-06-01T13:47:33;32.88;;;15.80;;
22883;SDS011;13386;24.786;110.488;2023-06-01T13:50:03;37.88;;;16.98;;
22883;SDS011;13386;24.786;110.488;2023-06-01T13:52:35;31.23;;;15.13;;
22883;SDS011;13386;24.786;110.488;2023-06-01T13:55:06;34.50;;;16.95;;
22883;SDS011;13386;24.786;110.488;2023-06-01T13:57:44;35.72;;;16.08;;
22883;SDS011;13386;24.786;110.488;2023-06-01T14:00:15;34.13;;;16.35;;
22883;SDS011;13386;24.786;110.488;2023-06-01T14:02:47;32.53;;;16.00;;
22883;SDS011;13386;24.786;110.488;2023-06-01T14:05:18;38.45;;;16.35;;
22883;SDS011;13386;24.786;110.488;2023-06-01T14:07:51;34.97;;;16.45;;
22883;SDS011;13386;24.786;110.488;2023-06-01T14:10:22;35.47;;;16.20;;
22883;SDS011;13386;24.786;110.488;2023-06-01T14:12:53;32.25;;;16.42;;
22883;SDS011;13386;24.786;110.488;2023-06-01T14:15:23;31.50;;;15.73;;
22883;SDS011;13386;24.786;110.488;2023-06-01T14:17:57;31.77;;;15.50;;
22883;SDS011;13386;24.786;110.488;2023-06-01T14:20:28;30.92;;;15.70;;
22883;SDS011;13386;24.786;110.488;2023-06-01T14:22:58;33.13;;;16.35;;
22883;SDS011;13386;24.786;110.488;2023-06-01T14:25:30;33.90;;;16.02;;
22883;SDS011;13386;24.786;110.488;2023-06-01T14:28:00;31.30;;;15.50;;
22883;SDS011;13386;24.786;110.488;2023-06-01T14:30:34;32.67;;;16.27;;
22883;SDS011;13386;24.786;110.488;2023-06-01T14:33:06;37.08;;;16.67;;
22883;SDS011;13386;24.786;110.488;2023-06-01T14:35:38;33.80;;;16.55;;
22883;SDS011;13386;24.786;110.488;2023-06-01T14:38:09;33.95;;;16.45;;